Flight Number: AVA2344 Duration: 1:45
Departure: Wichita Mid Continent Airport (KICT) at 01:00 Distance: 678.735 Nm
Arrival: Hartsfield-Jackson Atlanta (KATL) at 02:45 Equipment: CRJ700

Weather Information
WICHITA MID-CONTINENT AIRPORT , KS, United States (KICT) 37-39N 97-26W 408M Apr 14, 2024 - 10:53 PM EDT / 2024.04.15 0253 UTC
Wind: Calm:0
Visibility: 10 mile(s):0
Sky conditions: partly cloudy Temperature: 79.0 F (26.1 C) Dew Point: 51.1 F (10.6 C) Relative Humidity: 37% Pressure (altimeter): 29.81 in. Hg (1009 hPa) Pressure tendency: 0.05 inches (1.6 hPa) higher than three hours ago
ob: KICT 150253Z 00000KT 10SM FEW180 SCT250 26/11 A2981 RMK AO2 SLP081 T02610106 53016 cycle: 3
Sunrise: 11:55 Sunset: 01:03 (UTC)

HARTSFIELD-JACKSON ATLANTA, GA, United States (KATL) 33-39N 84-26W Apr 14, 2024 - 10:52 PM EDT / 2024.04.15 0252 UTC
Wind: from the SW (220 degrees) at 10 MPH (9 KT):0
Visibility: 10 mile(s):0
Sky conditions: mostly cloudy Temperature: 71.1 F (21.7 C) Dew Point: 51.1 F (10.6 C) Relative Humidity: 49% Pressure (altimeter): 30.05 in. Hg (1017 hPa) Pressure tendency: 0.01 inches (0.2 hPa) lower than three hours ago
ob: KATL 150252Z 22009KT 10SM BKN140 BKN170 BKN250 22/11 A3005 RMK AO2 SLP167 VIRGA DSNT N-E AND S T02170106 58002 cycle: 3
Sunrise: 11:08 Sunset: 00:06 (UTC)

TAF:2024/04/15 04:39 TAF AMD KATL 150336Z 1504/1606 25007KT P6SM SCT120 SCT200 FM151400 27007KT P6SM FEW300 FM151900 24008KT P6SM FEW060 SCT300 FM152300 23007KT P6SM SCT250

This route has never been flown.

Route map